Time;durP1;ratioP1;P1;durP2;ratioP2;P2;SDS_P1;SDS_P2;PMS_P1;PMS_P2;Temp;Humidity;BMP_temperature;BMP_pressure;BME280_temperature;BME280_humidity;BME280_pressure;Samples;Min_cycle;Max_cycle;Signal;HPM_P1;HPM_P2
2023/08/02 00:00:00;;;;;;;6.32;5.10;;;;;;;22.53;100.00;100523.50;5072417;28;20461;-73
2023/08/02 00:02:25;;;;;;;6.22;5.63;;;;;;;22.49;100.00;100507.34;5072298;28;20028;-73
2023/08/02 00:04:51;;;;;;;5.75;5.25;;;;;;;22.13;100.00;100473.56;5072940;28;20125;-73
2023/08/02 00:07:16;;;;;;;6.20;5.60;;;;;;;22.68;100.00;100468.06;5072711;28;20067;-73
2023/08/02 00:09:41;;;;;;;5.40;5.00;;;;;;;22.00;100.00;100325.94;5072713;28;20028;-73
2023/08/02 00:12:07;;;;;;;6.38;5.30;;;;;;;22.39;100.00;100341.28;5072641;28;20479;-73
2023/08/02 00:14:32;;;;;;;5.90;5.40;;;;;;;22.81;100.00;100365.09;5072750;28;20033;-74
2023/08/02 00:16:58;;;;;;;5.35;4.85;;;;;;;22.30;100.00;100276.31;5072209;28;20115;-72
2023/08/02 00:19:23;;;;;;;6.57;5.13;;;;;;;22.86;100.00;100316.31;5054758;28;20039;-74
2023/08/02 00:21:48;;;;;;;5.70;5.10;;;;;;;22.82;100.00;100296.75;5072246;28;20033;-73
2023/08/02 00:24:14;;;;;;;5.07;4.68;;;;;;;22.41;100.00;100224.53;5054398;28;20032;-73
2023/08/02 00:26:39;;;;;;;6.03;5.47;;;;;;;22.51;100.00;100269.59;5054202;28;20036;-73
2023/08/02 00:29:05;;;;;;;6.22;5.57;;;;;;;21.88;100.00;100145.53;5072390;28;20032;-73
2023/08/02 00:31:30;;;;;;;6.30;5.70;;;;;;;21.69;100.00;100087.41;5071955;28;20175;-72
2023/08/02 00:33:55;;;;;;;8.48;5.30;;;;;;;22.27;100.00;100022.63;5072179;28;20036;-73
2023/08/02 00:36:21;;;;;;;7.32;5.55;;;;;;;22.23;100.00;99982.34;5071728;28;20119;-73
2023/08/02 00:38:46;;;;;;;6.60;6.00;;;;;;;21.70;100.00;99968.22;5071832;28;20028;-72
2023/08/02 00:41:12;;;;;;;6.30;5.70;;;;;;;21.86;100.00;99983.47;5071878;28;20101;-73
2023/08/02 00:43:46;;;;;;;6.63;5.88;;;;;;;21.91;100.00;99991.69;5071568;28;20503;-73
2023/08/02 00:46:17;;;;;;;6.97;6.28;;;;;;;21.69;100.00;99859.63;5053463;28;20559;-71
2023/08/02 00:48:45;;;;;;;6.53;5.93;;;;;;;21.84;100.00;99881.78;5071623;28;20024;-74
2023/08/02 00:51:15;;;;;;;6.57;5.97;;;;;;;21.31;100.00;99764.19;5071908;28;20028;-74
2023/08/02 00:53:44;;;;;;;6.53;5.90;;;;;;;21.79;100.00;99807.00;5072224;28;20056;-76
2023/08/02 00:56:10;;;;;;;6.20;5.70;;;;;;;22.14;100.00;99774.09;5071573;28;20490;-74
2023/08/02 00:58:36;;;;;;;6.60;5.97;;;;;;;21.92;100.00;99762.94;5053861;28;20032;-73
2023/08/02 01:01:07;;;;;;;8.20;6.03;;;;;;;21.94;100.00;99699.72;5071576;28;20075;-74
2023/08/02 01:03:41;;;;;;;7.67;5.40;;;;;;;21.93;100.00;99705.84;5053622;28;20392;-73
2023/08/02 01:06:34;;;;;;;7.03;5.85;;;;;;;21.80;100.00;99689.59;5071233;28;20037;-73
2023/08/02 01:09:11;;;;;;;6.60;6.00;;;;;;;21.64;100.00;99633.97;5070690;28;20475;-72
2023/08/02 01:11:49;;;;;;;6.25;5.70;;;;;;;21.67;100.00;99634.56;5071621;28;20031;-73
2023/08/02 01:14:19;;;;;;;7.72;6.03;;;;;;;21.72;100.00;99699.72;5071406;28;20518;-73
2023/08/02 01:16:45;;;;;;;6.63;6.03;;;;;;;21.76;100.00;99649.38;5071670;28;20025;-72
2023/08/02 01:19:11;;;;;;;7.15;6.47;;;;;;;21.74;100.00;99712.53;5071348;28;20039;-73
2023/08/02 01:21:37;;;;;;;6.63;5.95;;;;;;;21.91;100.00;99738.78;5071025;28;20029;-73
2023/08/02 01:24:03;;;;;;;6.93;5.88;;;;;;;21.59;100.00;99719.72;5070762;28;20097;-73
2023/08/02 01:26:31;;;;;;;6.90;6.20;;;;;;;21.97;100.00;99797.03;5071106;28;20032;-72
2023/08/02 01:29:01;;;;;;;6.72;5.93;;;;;;;21.37;100.00;99771.50;5071511;28;20032;-73
2023/08/02 01:31:29;;;;;;;6.65;5.82;;;;;;;21.96;100.00;99860.97;5070760;28;20522;-72
2023/08/02 01:33:57;;;;;;;6.57;5.97;;;;;;;21.87;100.00;99897.91;5071163;28;20032;-72
2023/08/02 01:36:23;;;;;;;6.35;5.85;;;;;;;21.59;100.00;100390.00;5052597;28;20029;-72
2023/08/02 01:38:50;;;;;;;7.82;5.88;;;;;;;21.72;100.00;100395.22;5070708;28;20028;-73
2023/08/02 01:41:16;;;;;;;6.28;5.68;;;;;;;22.05;100.00;100427.47;5070582;28;20028;-72
2023/08/02 01:43:41;;;;;;;7.10;6.40;;;;;;;21.49;100.00;100382.03;5070872;28;20029;-72
2023/08/02 01:46:06;;;;;;;6.57;5.97;;;;;;;21.74;100.00;100442.53;5070881;28;20554;-72
2023/08/02 01:48:32;;;;;;;6.43;5.82;;;;;;;21.61;100.00;100364.06;5071023;28;20028;-72
2023/08/02 01:50:57;;;;;;;6.60;5.97;;;;;;;21.80;100.00;100385.16;5070566;28;20028;-71
2023/08/02 01:53:23;;;;;;;6.65;5.97;;;;;;;22.20;100.00;100425.59;5070696;28;20050;-72
2023/08/02 01:55:48;;;;;;;6.63;6.00;;;;;;;22.08;100.00;100435.03;5070642;28;20024;-73
2023/08/02 01:58:13;;;;;;;6.70;5.85;;;;;;;21.64;100.00;100393.13;5070572;28;20120;-72
2023/08/02 02:00:39;;;;;;;6.43;5.90;;;;;;;21.08;100.00;100360.66;5071065;28;20028;-73
2023/08/02 02:03:04;;;;;;;6.82;6.22;;;;;;;21.54;100.00;100460.22;5070800;28;20079;-73
2023/08/02 02:05:30;;;;;;;6.97;6.22;;;;;;;21.49;100.00;100376.06;5052512;28;20075;-72
2023/08/02 02:07:55;;;;;;;6.90;6.30;;;;;;;21.73;100.00;100413.22;5070754;28;20032;-72
2023/08/02 02:10:20;;;;;;;6.82;6.22;;;;;;;21.69;100.00;100447.22;5070553;28;20040;-73
2023/08/02 02:12:46;;;;;;;7.47;6.78;;;;;;;21.74;100.00;100486.53;5070847;28;20029;-73
2023/08/02 02:15:11;;;;;;;7.30;6.70;;;;;;;21.85;100.00;100522.97;5070677;28;20119;-73
2023/08/02 02:17:39;;;;;;;7.13;6.50;;;;;;;21.56;100.00;100491.16;5070230;28;20035;-73
2023/08/02 02:20:05;;;;;;;9.43;7.20;;;;;;;21.69;100.00;100541.19;5070859;28;20109;-72
2023/08/02 02:22:31;;;;;;;8.75;7.05;;;;;;;21.42;100.00;100492.06;5073475;28;20476;-71
2023/08/02 02:24:56;;;;;;;7.00;6.30;;;;;;;21.81;100.00;100568.91;5056859;28;20115;-73
2023/08/02 02:27:21;;;;;;;7.80;7.00;;;;;;;21.66;100.00;100582.00;5054144;28;20025;-72
2023/08/02 02:29:47;;;;;;;7.60;6.43;;;;;;;21.34;100.00;100527.13;5054123;28;20488;-72
2023/08/02 02:32:12;;;;;;;7.38;6.35;;;;;;;22.17;100.00;100596.78;5070588;28;20056;-71
2023/08/02 02:34:37;;;;;;;8.18;7.38;;;;;;;21.47;100.00;100559.88;5046388;28;20035;-73
2023/08/02 02:37:03;;;;;;;7.13;6.30;;;;;;;21.83;100.00;100631.81;5055654;28;20091;-72
2023/08/02 02:39:28;;;;;;;7.28;6.57;;;;;;;21.97;100.00;100643.88;5055095;28;20071;-72
2023/08/02 02:41:54;;;;;;;7.78;6.60;;;;;;;21.82;100.00;100606.84;5054070;28;20036;-71
2023/08/02 02:44:19;;;;;;;6.85;6.15;;;;;;;22.14;100.00;100675.56;5054032;28;20032;-71
2023/08/02 02:46:45;;;;;;;7.43;5.85;;;;;;;21.73;100.00;100612.56;5054023;28;20028;-72
2023/08/02 02:49:10;;;;;;;7.35;6.40;;;;;;;21.90;100.00;100637.44;5054117;28;20051;-71
2023/08/02 02:51:35;;;;;;;7.75;6.88;;;;;;;21.59;100.00;100628.13;5054052;28;20651;-71
2023/08/02 02:54:01;;;;;;;7.72;6.50;;;;;;;21.98;100.00;100700.78;5053833;28;20106;-72
2023/08/02 02:56:26;;;;;;;7.63;6.80;;;;;;;22.06;100.00;100713.22;5035836;28;20068;-73
2023/08/02 02:58:51;;;;;;;8.15;6.80;;;;;;;21.92;100.00;100711.50;5053556;28;20025;-74
2023/08/02 03:01:17;;;;;;;6.95;6.25;;;;;;;21.55;100.00;100687.03;5053183;28;20112;-73
2023/08/02 03:03:42;;;;;;;7.00;6.30;;;;;;;21.76;100.00;100731.50;5052992;28;20474;-72
2023/08/02 03:06:08;;;;;;;7.18;6.47;;;;;;;22.09;100.00;100776.03;5053461;28;20033;-73
2023/08/02 03:08:33;;;;;;;8.05;6.32;;;;;;;21.89;100.00;100767.84;5054128;28;20021;-74
2023/08/02 03:10:58;;;;;;;7.15;6.30;;;;;;;21.68;100.00;100751.00;5053978;28;20079;-73
2023/08/02 03:13:24;;;;;;;7.72;6.85;;;;;;;21.95;100.00;100776.06;5053786;28;20032;-73
2023/08/02 03:15:49;;;;;;;7.05;6.45;;;;;;;21.78;100.00;100767.63;5053418;28;20060;-74
2023/08/02 03:18:15;;;;;;;6.97;6.28;;;;;;;21.48;100.00;100722.00;5036027;28;20075;-74
2023/08/02 03:20:41;;;;;;;7.00;6.30;;;;;;;21.68;100.00;100764.78;5052942;28;20037;-73
2023/08/02 03:23:07;;;;;;;7.25;6.57;;;;;;;21.70;100.00;100796.59;5052889;28;20052;-73
2023/08/02 03:25:33;;;;;;;7.35;6.65;;;;;;;21.37;100.00;100757.22;5053723;28;20033;-73
2023/08/02 03:27:58;;;;;;;7.80;7.00;;;;;;;21.62;100.00;100785.03;5053589;28;20032;-75
2023/08/02 03:30:23;;;;;;;7.28;6.45;;;;;;;21.68;100.00;100769.13;5054310;28;20036;-72
2023/08/02 03:32:49;;;;;;;7.53;6.90;;;;;;;21.79;100.00;100823.69;5062781;28;20116;-73
2023/08/02 03:35:14;;;;;;;6.10;5.50;;;;;;;22.67;100.00;100869.13;5052962;28;20028;-69
2023/08/02 03:37:40;;;;;;;8.43;6.93;;;;;;;21.44;100.00;100779.22;5052744;28;20174;-71
2023/08/02 03:40:06;;;;;;;7.85;6.70;;;;;;;21.79;100.00;100839.22;5053438;28;20484;-69
2023/08/02 03:42:31;;;;;;;8.45;7.10;;;;;;;21.85;100.00;100844.06;5072656;28;20036;-72
2023/08/02 03:44:56;;;;;;;7.47;6.85;;;;;;;21.38;100.00;100808.03;5053402;28;20035;-70
2023/08/02 03:47:22;;;;;;;9.38;7.18;;;;;;;21.39;100.00;100831.22;5061315;28;20086;-71
2023/08/02 03:49:47;;;;;;;8.23;6.70;;;;;;;21.65;100.00;100883.22;5034287;28;20473;-70
2023/08/02 03:52:12;;;;;;;8.13;7.32;;;;;;;21.86;100.00;100934.63;5052424;28;20064;-71
2023/08/02 03:54:38;;;;;;;8.35;7.57;;;;;;;21.54;100.00;100951.16;5034741;28;20049;-73
2023/08/02 03:57:04;;;;;;;8.82;8.02;;;;;;;21.28;100.00;100951.78;5052443;28;20048;-71
2023/08/02 03:59:29;;;;;;;8.38;7.53;;;;;;;21.17;100.00;100942.06;5052213;28;20056;-71
2023/08/02 04:01:54;;;;;;;10.15;7.72;;;;;;;21.64;100.00;101022.19;5052231;28;20125;-71
2023/08/02 04:04:21;;;;;;;9.02;7.50;;;;;;;21.70;100.00;101011.47;5052124;28;20037;-73
2023/08/02 04:06:47;;;;;;;9.45;8.30;;;;;;;20.89;100.00;100944.47;5052273;28;20040;-72
2023/08/02 04:09:12;;;;;;;9.18;7.88;;;;;;;21.90;100.00;101070.78;5052047;28;20037;-72
2023/08/02 04:11:37;;;;;;;8.93;7.57;;;;;;;21.96;100.00;101059.22;5052465;28;20432;-73
2023/08/02 04:14:03;;;;;;;9.60;7.63;;;;;;;21.76;100.00;101028.41;5052396;28;20025;-69
2023/08/02 04:16:28;;;;;;;8.32;7.10;;;;;;;22.26;100.00;101084.16;5035050;28;20029;-71
2023/08/02 04:18:54;;;;;;;7.80;7.00;;;;;;;22.16;100.00;101083.06;5057100;28;20035;-72
2023/08/02 04:21:19;;;;;;;8.00;7.20;;;;;;;22.13;100.00;101072.88;5034058;28;20036;-72
2023/08/02 04:23:47;;;;;;;8.02;6.95;;;;;;;22.20;100.00;101069.00;5051696;28;20029;-73
2023/08/02 04:26:13;;;;;;;7.43;6.55;;;;;;;22.01;100.00;101029.53;5052260;28;20032;-72
2023/08/02 04:28:38;;;;;;;8.63;7.10;;;;;;;22.12;100.00;101050.50;5051713;28;20032;-72
2023/08/02 04:31:04;;;;;;;10.43;7.82;;;;;;;22.78;100.00;101107.88;5052016;28;20025;-71
2023/08/02 04:33:29;;;;;;;10.15;7.15;;;;;;;22.66;100.00;101090.47;5033310;28;20523;-70
2023/08/02 04:35:59;;;;;;;7.95;7.15;;;;;;;22.37;100.00;101019.59;5051617;28;20417;-71
2023/08/02 04:38:25;;;;;;;7.97;7.20;;;;;;;22.69;100.00;101076.47;5034453;28;20025;-79
2023/08/02 04:40:50;;;;;;;10.85;7.60;;;;;;;22.81;100.00;101066.22;5052645;28;20091;-79
2023/08/02 04:43:16;;;;;;;8.30;7.00;;;;;;;23.03;100.00;101066.56;5051642;28;20499;-77
2023/08/02 04:45:41;;;;;;;10.90;7.38;;;;;;;22.95;100.00;101067.94;5051710;28;20553;-78
2023/08/02 04:48:06;;;;;;;8.73;7.47;;;;;;;22.59;100.00;100997.56;5053012;28;20036;-77
2023/08/02 04:50:35;;;;;;;9.32;6.82;;;;;;;23.31;100.00;101054.44;5052447;28;20039;-77
2023/08/02 04:53:01;;;;;;;10.52;6.60;;;;;;;23.09;100.00;100972.75;5051447;28;20057;-77
2023/08/02 04:55:26;;;;;;;7.68;6.88;;;;;;;23.11;100.00;100951.88;5035301;28;20032;-78
2023/08/02 04:57:52;;;;;;;7.88;6.65;;;;;;;23.23;100.00;100932.94;5035083;28;20052;-77
2023/08/02 05:00:17;;;;;;;7.43;6.15;;;;;;;23.81;100.00;100992.31;5052651;28;20467;-76
2023/08/02 05:02:45;;;;;;;9.10;6.50;;;;;;;24.22;100.00;100966.97;5052139;28;20044;-78
2023/08/02 05:05:10;;;;;;;8.68;6.60;;;;;;;23.68;100.00;100872.78;5052436;28;20033;-77
2023/08/02 05:07:37;;;;;;;7.05;6.38;;;;;;;23.58;100.00;100853.56;5052160;28;20153;-77
2023/08/02 05:10:05;;;;;;;7.35;6.65;;;;;;;23.87;100.00;100872.34;5052156;28;20021;-76
2023/08/02 05:12:34;;;;;;;10.80;6.82;;;;;;;23.47;100.00;100863.03;5034528;28;20121;-78
2023/08/02 05:15:00;;;;;;;8.05;7.25;;;;;;;23.21;100.00;100794.66;5052087;28;20147;-78
2023/08/02 05:17:29;;;;;;;8.23;6.97;;;;;;;23.45;100.00;100805.16;5051924;28;20029;-78
2023/08/02 05:19:54;;;;;;;7.55;6.63;;;;;;;23.81;100.00;100844.22;5052301;28;20029;-78
2023/08/02 05:22:20;;;;;;;10.43;7.53;;;;;;;24.11;100.00;100838.69;5051617;28;20048;-76
2023/08/02 05:24:45;;;;;;;8.63;6.82;;;;;;;24.61;100.00;100852.34;5034407;28;20560;-70
2023/08/02 05:27:10;;;;;;;11.05;7.22;;;;;;;24.80;100.00;100810.22;5052213;28;20502;-79
2023/08/02 05:29:36;;;;;;;8.80;7.03;;;;;;;24.17;100.00;100709.09;5051912;28;20499;-75
2023/08/02 05:32:01;;;;;;;8.35;6.75;;;;;;;24.29;100.00;100682.22;5051908;28;20090;-76
2023/08/02 05:34:27;;;;;;;7.90;7.10;;;;;;;24.78;100.00;100721.06;5052278;28;20033;-78
2023/08/02 05:36:52;;;;;;;7.68;6.93;;;;;;;24.97;100.00;100682.28;5051843;28;20029;-76
2023/08/02 05:39:17;;;;;;;7.60;6.80;;;;;;;24.82;100.00;100592.38;5033913;28;20028;-77
2023/08/02 05:41:43;;;;;;;7.97;6.78;;;;;;;25.38;100.00;100620.03;5052067;28;20029;-77
2023/08/02 05:44:08;;;;;;;8.77;6.15;;;;;;;25.43;100.00;100547.59;5051654;28;20071;-76
2023/08/02 05:46:34;;;;;;;8.07;6.20;;;;;;;25.26;100.00;100501.22;5052052;28;20121;-76
2023/08/02 05:48:59;;;;;;;7.32;6.35;;;;;;;25.78;100.00;100477.81;5051889;28;20024;-76
2023/08/02 05:51:25;;;;;;;11.50;6.38;;;;;;;26.28;100.00;100459.72;5052202;28;20557;-77
2023/08/02 05:53:50;;;;;;;8.85;6.60;;;;;;;26.13;100.00;100438.38;5052096;28;20049;-76
2023/08/02 05:56:16;;;;;;;9.88;6.43;;;;;;;26.07;100.00;100407.63;5062601;28;20048;-75
2023/08/02 05:58:41;;;;;;;7.32;6.00;;;;;;;25.73;100.00;100387.97;5067683;28;20025;-77
2023/08/02 06:01:07;;;;;;;7.70;6.22;;;;;;;25.87;100.00;100379.78;5051569;28;20040;-75
2023/08/02 06:03:32;;;;;;;6.70;6.10;;;;;;;25.68;100.00;100265.88;5051662;28;20036;-76
2023/08/02 06:05:57;;;;;;;7.10;6.47;;;;;;;26.42;100.00;100319.31;5051688;28;20025;-75
2023/08/02 06:08:23;;;;;;;11.57;6.05;;;;;;;26.68;100.00;100232.69;5051557;28;20043;-76
2023/08/02 06:10:48;;;;;;;9.32;5.75;;;;;;;26.76;100.00;100206.75;5033777;28;20415;-76
2023/08/02 06:13:14;;;;;;;8.43;6.03;;;;;;;27.47;100.00;100231.44;5051389;28;20033;-75
2023/08/02 06:15:39;;;;;;;12.45;6.00;;;;;;;26.95;100.00;100223.22;5051608;28;20075;-75
2023/08/02 06:18:04;;;;;;;7.85;5.35;;;;;;;27.33;100.00;100246.63;5051383;28;20036;-76
2023/08/02 06:20:30;;;;;;;8.02;6.18;;;;;;;27.44;100.00;100296.09;5051536;28;20036;-75
2023/08/02 06:22:55;;;;;;;8.68;5.50;;;;;;;27.01;100.00;100300.13;5051057;28;20048;-76
2023/08/02 06:25:21;;;;;;;7.47;5.70;;;;;;;27.30;100.00;100499.41;5051325;28;20129;-75
2023/08/02 06:27:47;;;;;;;6.60;5.80;;;;;;;26.96;100.00;100464.22;5051224;28;20108;-78
2023/08/02 06:30:14;;;;;;;6.20;5.63;;;;;;;27.24;100.00;100568.72;5051189;28;20116;-75
2023/08/02 06:32:39;;;;;;;6.07;5.57;;;;;;;27.88;100.00;100662.38;5033801;28;20029;-76
2023/08/02 06:35:05;;;;;;;6.20;5.20;;;;;;;28.07;100.00;101280.56;5051565;28;20045;-73
2023/08/02 06:37:30;;;;;;;6.97;5.50;;;;;;;28.71;100.00;101352.16;5051406;28;20032;-77
2023/08/02 06:39:56;;;;;;;11.98;6.18;;;;;;;27.10;100.00;101336.97;5051425;28;20027;-76
2023/08/02 06:42:21;;;;;;;6.35;5.75;;;;;;;28.68;100.00;101393.47;5051236;28;20060;-72
2023/08/02 06:44:47;;;;;;;6.50;5.90;;;;;;;28.04;100.00;101354.09;5051085;28;20041;-75
2023/08/02 06:47:12;;;;;;;8.52;6.60;;;;;;;28.12;100.00;101283.66;5051052;28;20041;-75
2023/08/02 06:49:38;;;;;;;9.80;6.60;;;;;;;28.26;100.00;101418.63;5051180;28;20419;-76
2023/08/02 06:52:03;;;;;;;6.88;6.18;;;;;;;28.75;100.00;101584.03;5051378;28;20395;-75
2023/08/02 06:54:29;;;;;;;8.77;7.35;;;;;;;28.93;100.00;101642.03;5051324;28;20048;-75
2023/08/02 06:56:54;;;;;;;7.53;6.65;;;;;;;28.80;100.00;101418.69;5051268;28;20039;-76
2023/08/02 06:59:20;;;;;;;6.80;6.18;;;;;;;28.70;100.00;101484.03;5033838;28;20035;-76
2023/08/02 07:01:46;;;;;;;6.95;6.35;;;;;;;28.70;100.00;101533.78;5051034;28;20021;-76
2023/08/02 07:04:11;;;;;;;7.50;6.55;;;;;;;28.11;100.00;101551.47;5044879;28;20033;-76
2023/08/02 07:06:36;;;;;;;8.68;7.22;;;;;;;28.16;100.00;101562.44;5071263;28;20115;-77
2023/08/02 07:09:02;;;;;;;8.15;7.32;;;;;;;28.91;100.00;101707.66;5074162;28;20418;-77
2023/08/02 07:11:27;;;;;;;8.50;7.35;;;;;;;28.35;100.00;101690.13;5074123;28;20501;-77
2023/08/02 07:13:53;;;;;;;8.98;8.13;;;;;;;28.86;100.00;101682.75;5074733;28;20052;-77
2023/08/02 07:16:18;;;;;;;8.63;7.72;;;;;;;29.18;100.00;101680.28;5056370;28;20032;-78
2023/08/02 07:18:43;;;;;;;8.40;7.60;;;;;;;29.70;100.00;101597.31;5056496;28;20040;-78
2023/08/02 07:21:09;;;;;;;8.27;7.45;;;;;;;29.72;100.00;101480.00;5074569;28;20077;-76
2023/08/02 07:23:36;;;;;;;13.27;10.30;;;;;;;30.36;100.00;100847.84;5074510;28;20396;-78
2023/08/02 07:26:02;;;;;;;9.52;7.75;;;;;;;30.24;100.00;100975.00;5073907;28;20103;-76
2023/08/02 07:28:27;;;;;;;8.13;7.43;;;;;;;29.49;100.00;100929.59;5074512;28;20486;-76
2023/08/02 07:30:53;;;;;;;8.25;7.43;;;;;;;29.72;100.00;100710.66;5074530;28;20039;-75
2023/08/02 07:33:18;;;;;;;9.00;7.50;;;;;;;28.00;100.00;100619.47;5074540;28;20040;-79
2023/08/02 07:35:46;;;;;;;9.25;8.35;;;;;;;28.36;100.00;100673.69;5055873;28;20032;-77
2023/08/02 07:38:14;;;;;;;10.75;8.05;;;;;;;28.35;100.00;100656.31;5056443;28;20028;-76
2023/08/02 07:40:41;;;;;;;8.23;7.43;;;;;;;28.47;100.00;100647.34;5073089;28;20119;-79
2023/08/02 07:43:07;;;;;;;8.25;7.55;;;;;;;28.34;100.00;100640.78;5055976;28;20031;-76
2023/08/02 07:45:32;;;;;;;9.23;8.18;;;;;;;28.83;100.00;100630.91;5073911;28;20028;-78
2023/08/02 07:47:57;;;;;;;11.40;8.43;;;;;;;29.08;100.00;100677.38;5074435;28;20024;-75
2023/08/02 07:50:23;;;;;;;8.52;7.72;;;;;;;30.18;100.00;100714.88;5055958;28;20032;-77
2023/08/02 07:52:48;;;;;;;9.93;8.35;;;;;;;29.86;100.00;100762.63;5073578;28;20497;-77
2023/08/02 07:55:14;;;;;;;9.02;8.23;;;;;;;29.86;100.00;100857.06;5073664;28;20064;-77
2023/08/02 07:57:39;;;;;;;10.55;8.02;;;;;;;28.94;100.00;100934.56;5073984;28;20025;-77
2023/08/02 08:00:06;;;;;;;9.50;8.35;;;;;;;28.68;100.00;100891.50;5073428;28;20039;-76
2023/08/02 08:02:31;;;;;;;9.63;8.63;;;;;;;28.71;100.00;100935.78;5056636;28;20033;-76
2023/08/02 08:04:57;;;;;;;9.15;8.20;;;;;;;28.95;100.00;100883.00;5073989;28;20040;-78
2023/08/02 08:07:22;;;;;;;9.85;8.85;;;;;;;28.70;100.00;100896.66;5055652;28;20085;-77
2023/08/02 08:09:50;;;;;;;13.15;8.77;;;;;;;28.89;100.00;100907.97;5073661;28;20522;-77
2023/08/02 08:12:15;;;;;;;10.65;9.15;;;;;;;28.97;100.00;100926.44;5073254;28;20036;-74
2023/08/02 08:14:41;;;;;;;15.15;8.77;;;;;;;29.59;100.00;101041.38;5073199;28;20025;-76
2023/08/02 08:17:07;;;;;;;11.88;9.25;;;;;;;29.68;100.00;101106.13;5073738;28;20403;-76
2023/08/02 08:19:35;;;;;;;9.85;8.77;;;;;;;30.63;100.00;101713.81;5072753;28;20028;-76
2023/08/02 08:22:01;;;;;;;11.68;8.60;;;;;;;30.79;100.00;101972.56;5055515;28;20036;-76
2023/08/02 08:24:26;;;;;;;9.50;8.60;;;;;;;31.29;100.00;101921.09;5073471;28;20406;-75
2023/08/02 08:26:55;;;;;;;10.80;8.90;;;;;;;30.68;100.00;101827.25;5073026;28;20040;-76
2023/08/02 08:29:20;;;;;;;9.48;8.52;;;;;;;30.25;100.00;101808.06;5073316;28;20024;-75
2023/08/02 08:31:46;;;;;;;10.02;8.85;;;;;;;30.07;100.00;101722.91;5073697;28;20037;-76
2023/08/02 08:34:13;;;;;;;10.65;9.50;;;;;;;31.00;100.00;101785.16;5073493;28;20024;-75
2023/08/02 08:36:39;;;;;;;11.25;9.13;;;;;;;31.83;100.00;101735.78;5073130;28;20212;-76
2023/08/02 08:39:04;;;;;;;10.80;9.32;;;;;;;31.44;100.00;101512.09;5073063;28;20111;-78
2023/08/02 08:41:30;;;;;;;10.98;9.68;;;;;;;31.52;100.00;101417.50;5055643;28;20542;-76
2023/08/02 08:43:56;;;;;;;9.77;8.88;;;;;;;31.66;100.00;101318.03;5073323;28;20064;-78
2023/08/02 08:46:23;;;;;;;10.15;9.07;;;;;;;31.97;100.00;101299.19;5072954;28;20028;-77
2023/08/02 08:48:48;;;;;;;10.85;9.77;;;;;;;31.30;100.00;101206.59;5072981;28;20095;-78
2023/08/02 08:51:16;;;;;;;12.13;9.15;;;;;;;31.60;100.00;101214.22;5073048;28;20028;-77
2023/08/02 08:53:44;;;;;;;10.48;9.55;;;;;;;31.35;100.00;101096.53;5054561;28;20048;-77
2023/08/02 08:56:10;;;;;;;11.40;10.27;;;;;;;32.04;100.00;101094.06;5072727;28;20510;-75
2023/08/02 08:58:37;;;;;;;11.00;9.88;;;;;;;32.54;100.00;101007.31;5055679;28;20028;-77
2023/08/02 09:01:03;;;;;;;12.50;9.68;;;;;;;31.42;100.00;100998.50;5072887;28;20029;-73
2023/08/02 09:03:29;;;;;;;11.23;10.13;;;;;;;32.56;100.00;101016.72;5072439;28;20415;-76
2023/08/02 09:06:00;;;;;;;12.00;10.20;;;;;;;32.87;100.00;100895.72;5054854;28;20039;-76
2023/08/02 09:08:26;;;;;;;9.93;9.05;;;;;;;32.76;100.00;100851.25;5072777;28;20028;-78
2023/08/02 09:10:52;;;;;;;11.05;9.95;;;;;;;32.55;100.00;100883.31;5072286;28;20107;-76
2023/08/02 09:13:27;;;;;;;10.88;9.88;;;;;;;33.11;100.00;100816.66;5081383;28;20556;-76
2023/08/02 09:16:06;;;;;;;10.82;9.82;;;;;;;32.59;100.00;100660.69;5078073;28;20024;-75
2023/08/02 09:18:46;;;;;;;11.80;9.73;;;;;;;33.21;100.00;100514.00;5072284;28;20029;-76
2023/08/02 09:21:14;;;;;;;11.25;10.10;;;;;;;33.61;100.00;100450.41;5072173;28;20039;-73
2023/08/02 09:23:56;;;;;;;11.40;10.40;;;;;;;33.08;100.00;100313.41;5072206;28;20483;-78
2023/08/02 09:26:22;;;;;;;11.23;10.23;;;;;;;32.64;100.00;100193.88;5072324;28;20039;-75
2023/08/02 09:29:04;;;;;;;10.80;9.70;;;;;;;32.97;100.00;99929.81;5072153;28;20032;-76
2023/08/02 09:31:32;;;;;;;11.13;9.85;;;;;;;32.15;100.00;99870.44;5071273;28;20032;-76
2023/08/02 09:33:57;;;;;;;11.02;9.90;;;;;;;33.24;100.00;99841.19;5071792;28;20093;-75
2023/08/02 09:36:28;;;;;;;12.10;10.90;;;;;;;32.28;100.00;99796.91;5072018;28;20033;-78
2023/08/02 09:39:03;;;;;;;12.35;11.10;;;;;;;32.55;100.00;99728.72;5071816;28;20059;-75
2023/08/02 09:41:30;;;;;;;11.77;10.50;;;;;;;32.70;100.00;99721.56;5071300;28;20060;-76
2023/08/02 09:43:56;;;;;;;12.10;11.10;;;;;;;33.84;100.00;99751.69;5071501;28;20036;-75
2023/08/02 09:46:34;;;;;;;12.25;11.15;;;;;;;33.14;100.00;99722.91;5071600;28;20024;-80
2023/08/02 09:49:19;;;;;;;12.38;11.18;;;;;;;32.67;100.00;99735.09;5071713;28;20056;-75
2023/08/02 09:51:45;;;;;;;11.13;10.15;;;;;;;32.82;100.00;99672.59;5066938;28;20032;-77
2023/08/02 09:54:12;;;;;;;11.30;10.40;;;;;;;34.19;100.00;99694.31;5071131;28;20060;-77
2023/08/02 09:56:40;;;;;;;14.05;12.55;;;;;;;33.86;100.00;99730.34;5071702;28;20032;-78
2023/08/02 09:59:06;;;;;;;12.80;11.05;;;;;;;32.64;100.00;99825.06;5066738;28;20035;-71
2023/08/02 10:01:34;;;;;;;11.63;10.52;;;;;;;33.81;100.00;99802.19;5050589;28;20543;-74
2023/08/02 10:04:02;;;;;;;11.90;10.25;;;;;;;34.01;100.00;99816.31;5050748;28;20033;-72
2023/08/02 10:06:33;;;;;;;13.15;10.35;;;;;;;33.75;100.00;99824.13;5050776;28;20033;-74
2023/08/02 10:09:00;;;;;;;;;;;;;;;34.41;100.00;99883.31;5050791;28;20492;-73
2023/08/02 10:11:27;;;;;;;11.38;10.27;;;;;;;35.02;100.00;99896.50;5050282;28;20379;-73
2023/08/02 10:13:54;;;;;;;12.48;10.80;;;;;;;33.73;100.00;99922.97;5050766;28;20029;-74
2023/08/02 10:16:23;;;;;;;11.25;10.25;;;;;;;33.66;100.00;99885.97;5050831;28;20110;-73
2023/08/02 10:18:51;;;;;;;10.77;9.88;;;;;;;34.05;100.00;99888.84;5050637;28;20166;-74
2023/08/02 10:21:17;;;;;;;11.65;10.52;;;;;;;34.72;100.00;99911.88;5050320;28;20036;-72
2023/08/02 10:23:43;;;;;;;11.23;10.23;;;;;;;34.98;100.00;99933.13;5032248;28;20462;-74
2023/08/02 10:26:08;;;;;;;12.35;11.00;;;;;;;34.80;100.00;99924.94;5032763;28;20040;-74
2023/08/02 10:28:35;;;;;;;11.82;10.35;;;;;;;34.58;100.00;99889.09;5050318;28;20060;-73
2023/08/02 10:31:02;;;;;;;11.13;10.18;;;;;;;34.60;100.00;99892.34;5032291;28;20492;-73
2023/08/02 10:33:28;;;;;;;11.40;10.30;;;;;;;35.07;100.00;99925.78;5050597;28;20029;-73
2023/08/02 10:35:54;;;;;;;11.57;10.00;;;;;;;34.51;100.00;99946.38;5032852;28;20405;-74
2023/08/02 10:38:25;;;;;;;11.23;10.13;;;;;;;34.55;100.00;99937.84;5050102;28;20033;-72
2023/08/02 10:41:03;;;;;;;12.70;10.57;;;;;;;34.86;100.00;99942.63;5032528;28;20029;-74
2023/08/02 10:43:28;;;;;;;11.25;10.25;;;;;;;34.93;100.00;99923.13;5054234;28;20048;-74
2023/08/02 10:46:18;;;;;;;11.55;10.48;;;;;;;34.56;100.00;99923.63;5036224;28;20479;-73
2023/08/02 10:48:44;;;;;;;11.05;10.15;;;;;;;35.00;100.00;99909.94;5054113;28;20025;-74
2023/08/02 10:51:32;;;;;;;10.90;10.00;;;;;;;35.01;100.00;99900.16;5054257;28;20056;-73
2023/08/02 10:54:13;;;;;;;12.27;10.80;;;;;;;35.43;100.00;99876.78;5054061;28;20507;-74
2023/08/02 10:56:51;;;;;;;12.75;11.05;;;;;;;35.63;100.00;99853.78;5036409;28;20483;-74
2023/08/02 10:59:36;;;;;;;11.73;10.68;;;;;;;34.81;100.00;99823.44;5035704;28;20037;-72
2023/08/02 11:02:12;;;;;;;10.95;10.13;;;;;;;34.89;100.00;99794.97;5039571;28;20048;-74
2023/08/02 11:04:44;;;;;;;10.85;9.95;;;;;;;35.27;100.00;99763.44;5053831;28;20043;-74
2023/08/02 11:07:16;;;;;;;10.27;9.43;;;;;;;35.28;100.00;99769.56;5054193;28;20111;-75
2023/08/02 11:09:42;;;;;;;10.95;10.05;;;;;;;35.19;100.00;99798.03;5054565;28;20511;-75
2023/08/02 11:12:12;;;;;;;10.93;10.02;;;;;;;35.39;100.00;99742.44;5053755;28;20069;-75
2023/08/02 11:14:43;;;;;;;11.57;10.52;;;;;;;35.42;100.00;99749.94;5054131;28;20029;-75